createdAt,value
2019-06-26T00:01:57.184Z,13.23
2019-06-26T00:04:24.712Z,11.40
2019-06-26T00:06:52.188Z,11.05
2019-06-26T00:09:19.819Z,14.35
2019-06-26T00:11:47.276Z,12.73
2019-06-26T00:14:14.817Z,14.70
2019-06-26T00:16:42.264Z,12.65
2019-06-26T00:19:10.069Z,14.38
2019-06-26T00:21:37.490Z,13.07
2019-06-26T00:24:04.932Z,13.70
2019-06-26T00:26:32.382Z,13.50
2019-06-26T00:28:59.790Z,13.70
2019-06-26T00:31:27.217Z,14.05
2019-06-26T00:33:54.789Z,12.30
2019-06-26T00:36:22.267Z,11.43
2019-06-26T00:38:49.877Z,11.57
2019-06-26T00:41:17.284Z,11.15
2019-06-26T00:43:46.263Z,11.80
2019-06-26T00:46:13.709Z,11.07
2019-06-26T00:48:41.460Z,11.60
2019-06-26T00:51:08.891Z,13.27
2019-06-26T00:53:36.377Z,11.75
2019-06-26T00:56:03.904Z,12.48
2019-06-26T00:58:31.513Z,10.63
2019-06-26T01:00:58.996Z,11.40
2019-06-26T01:03:26.705Z,11.20
2019-06-26T01:05:54.145Z,10.30
2019-06-26T01:08:21.604Z,9.50
2019-06-26T01:10:49.034Z,10.65
2019-06-26T01:13:16.461Z,9.98
2019-06-26T01:15:43.913Z,11.38
2019-06-26T01:18:11.600Z,10.73
2019-06-26T01:20:39.080Z,11.00
2019-06-26T01:23:06.521Z,10.82
2019-06-26T01:25:33.938Z,11.52
2019-06-26T01:28:01.418Z,9.43
2019-06-26T01:30:28.867Z,10.93
2019-06-26T01:32:56.621Z,9.80
2019-06-26T01:35:24.069Z,9.23
2019-06-26T01:37:51.502Z,9.82
2019-06-26T01:40:19.335Z,11.98
2019-06-26T01:42:46.845Z,10.20
2019-06-26T01:45:14.431Z,10.03
2019-06-26T01:47:41.967Z,8.20
2019-06-26T01:50:09.537Z,9.15
2019-06-26T01:52:37.212Z,10.68
2019-06-26T01:55:06.213Z,10.00
2019-06-26T01:57:33.644Z,8.87
2019-06-26T02:00:01.055Z,9.15
2019-06-26T02:02:28.493Z,10.60
2019-06-26T02:04:55.979Z,8.63
2019-06-26T02:12:17.368Z,9.65
2019-06-26T02:14:44.813Z,12.50
2019-06-26T02:17:12.349Z,9.43
2019-06-26T02:19:39.764Z,10.10
2019-06-26T02:22:07.947Z,9.75
2019-06-26T02:24:35.395Z,9.70
2019-06-26T02:27:03.207Z,9.18
2019-06-26T02:29:30.732Z,9.82
2019-06-26T02:31:58.198Z,10.48
2019-06-26T02:34:25.611Z,8.85
2019-06-26T02:36:53.160Z,12.02
2019-06-26T02:39:20.581Z,9.95
2019-06-26T02:41:47.996Z,8.52
2019-06-26T02:44:15.629Z,10.60
2019-06-26T02:46:43.115Z,8.38
2019-06-26T02:49:10.558Z,9.60
2019-06-26T02:51:38.294Z,9.82
2019-06-26T02:54:05.751Z,9.10
2019-06-26T02:56:33.235Z,10.38
2019-06-26T02:59:00.803Z,9.25
2019-06-26T03:01:28.238Z,9.88
2019-06-26T03:03:55.663Z,8.85
2019-06-26T03:06:23.248Z,9.30
2019-06-26T03:08:50.853Z,9.43
2019-06-26T03:11:18.352Z,10.45
2019-06-26T03:13:45.775Z,11.55
2019-06-26T03:16:14.037Z,11.88
2019-06-26T03:21:15.809Z,8.93
2019-06-26T03:23:43.358Z,8.88
2019-06-26T03:26:10.807Z,8.95
2019-06-26T03:28:38.274Z,10.45
2019-06-26T03:31:05.761Z,10.25
2019-06-26T03:33:33.218Z,9.13
2019-06-26T03:36:00.644Z,9.20
2019-06-26T03:38:28.257Z,8.98
2019-06-26T03:40:55.805Z,8.95
2019-06-26T03:43:23.221Z,11.18
2019-06-26T03:45:50.714Z,9.32
2019-06-26T03:48:18.202Z,9.63
2019-06-26T03:50:45.863Z,8.95
2019-06-26T03:53:13.285Z,10.30
2019-06-26T03:55:40.901Z,10.68
2019-06-26T03:58:08.399Z,10.07
2019-06-26T04:00:38.444Z,9.57
2019-06-26T04:03:05.839Z,9.32
2019-06-26T04:05:33.372Z,8.52
2019-06-26T04:08:00.023Z,9.07
2019-06-26T04:10:27.512Z,9.98
2019-06-26T04:12:54.941Z,9.52
2019-06-26T04:15:22.350Z,8.55
2019-06-26T04:17:49.758Z,9.23
2019-06-26T04:20:17.224Z,8.98
2019-06-26T04:22:47.581Z,9.63
2019-06-26T04:25:12.260Z,10.25
2019-06-26T04:27:39.671Z,9.70
2019-06-26T04:30:07.130Z,10.93
2019-06-26T04:32:34.573Z,10.15
2019-06-26T04:35:02.309Z,10.82
2019-06-26T04:37:29.805Z,11.07
2019-06-26T04:39:57.657Z,10.40
2019-06-26T04:42:25.107Z,11.05
2019-06-26T04:44:52.547Z,13.32
2019-06-26T04:47:20.737Z,12.77
2019-06-26T04:49:48.304Z,13.13
2019-06-26T04:52:15.677Z,12.98
2019-06-26T04:54:43.413Z,10.30
2019-06-26T04:57:10.885Z,12.80
2019-06-26T04:59:38.554Z,12.55
2019-06-26T05:02:05.979Z,13.13
2019-06-26T05:04:34.276Z,14.85
2019-06-26T05:07:02.532Z,12.23
2019-06-26T05:09:30.094Z,10.82
2019-06-26T05:11:57.520Z,11.68
2019-06-26T05:14:24.940Z,11.63
2019-06-26T05:16:52.381Z,9.95
2019-06-26T05:19:20.239Z,12.15
2019-06-26T05:21:47.702Z,9.52
2019-06-26T05:24:15.771Z,13.23
2019-06-26T05:26:43.169Z,10.75
2019-06-26T05:29:10.720Z,12.50
2019-06-26T05:31:38.123Z,13.02
2019-06-26T05:34:05.572Z,10.15
2019-06-26T05:36:32.985Z,15.57
2019-06-26T05:39:00.714Z,11.07
2019-06-26T05:41:28.112Z,10.88
2019-06-26T05:43:55.680Z,15.60
2019-06-26T05:46:31.010Z,14.32
2019-06-26T05:48:50.695Z,13.05
2019-06-26T05:51:18.151Z,13.62
2019-06-26T05:53:45.904Z,16.70
2019-06-26T05:56:14.135Z,12.85
2019-06-26T05:58:41.817Z,12.77
2019-06-26T06:01:09.460Z,11.48
2019-06-26T06:03:36.870Z,12.45
2019-06-26T06:06:04.494Z,14.45
2019-06-26T06:08:32.030Z,13.05
2019-06-26T06:10:59.463Z,14.15
2019-06-26T06:13:27.777Z,12.55
2019-06-26T06:15:55.201Z,13.40
2019-06-26T06:18:22.870Z,13.00
2019-06-26T06:20:50.895Z,12.50
2019-06-26T06:23:18.529Z,14.20
2019-06-26T06:25:45.985Z,13.25
2019-06-26T06:28:13.407Z,13.93
2019-06-26T06:30:40.893Z,12.48
2019-06-26T06:33:08.555Z,14.70
2019-06-26T06:35:36.097Z,13.48
2019-06-26T06:38:03.830Z,14.80
2019-06-26T06:40:31.251Z,12.50
2019-06-26T06:42:58.726Z,13.75
2019-06-26T06:45:27.781Z,12.65
2019-06-26T06:47:55.819Z,13.68
2019-06-26T06:50:23.440Z,12.40
2019-06-26T06:52:51.804Z,13.40
2019-06-26T06:55:19.254Z,14.32
2019-06-26T06:57:46.686Z,14.10
2019-06-26T07:00:14.296Z,12.77
2019-06-26T07:02:41.837Z,13.20
2019-06-26T07:05:09.363Z,16.30
2019-06-26T07:07:36.953Z,15.32
2019-06-26T07:10:05.292Z,16.65
2019-06-26T07:12:33.737Z,17.80
2019-06-26T07:15:01.026Z,15.10
2019-06-26T07:17:28.642Z,16.92
2019-06-26T07:19:56.150Z,17.83
2019-06-26T07:22:23.604Z,18.87
2019-06-26T07:24:51.028Z,17.83
2019-06-26T07:27:18.507Z,19.00
2019-06-26T07:29:45.926Z,15.63
2019-06-26T07:32:13.916Z,18.25
2019-06-26T07:34:41.655Z,17.02
2019-06-26T07:37:09.585Z,18.25
2019-06-26T07:39:37.094Z,23.38
2019-06-26T07:42:04.914Z,15.25
2019-06-26T07:44:32.436Z,17.58
2019-06-26T07:47:00.626Z,16.33
2019-06-26T07:49:28.119Z,18.73
2019-06-26T07:51:55.633Z,19.62
2019-06-26T07:54:23.217Z,24.17
2019-06-26T07:56:50.749Z,22.90
2019-06-26T07:59:18.153Z,22.90
2019-06-26T08:01:46.222Z,24.37
2019-06-26T08:04:13.674Z,20.92
2019-06-26T08:06:42.363Z,21.15
2019-06-26T08:09:09.799Z,20.02
2019-06-26T08:11:37.254Z,22.23
2019-06-26T08:14:04.682Z,21.52
2019-06-26T08:16:34.399Z,19.52
2019-06-26T08:18:59.634Z,22.70
2019-06-26T08:21:28.610Z,24.12
2019-06-26T08:23:56.116Z,22.23
2019-06-26T08:26:23.799Z,20.33
2019-06-26T08:28:51.262Z,20.80
2019-06-26T08:31:19.190Z,19.80
2019-06-26T08:33:46.606Z,20.17
2019-06-26T08:36:14.233Z,21.83
2019-06-26T08:38:41.663Z,18.80
2019-06-26T08:41:09.161Z,19.42
2019-06-26T08:43:36.588Z,22.10
2019-06-26T08:46:04.199Z,23.27
2019-06-26T08:48:39.394Z,16.55
2019-06-26T08:51:01.306Z,19.40
2019-06-26T08:53:28.735Z,22.33
2019-06-26T08:55:56.267Z,23.23
2019-06-26T08:58:23.740Z,14.65
2019-06-26T09:00:51.287Z,19.62
2019-06-26T09:03:18.883Z,18.10
2019-06-26T09:05:48.439Z,19.27
2019-06-26T09:08:14.673Z,19.12
2019-06-26T09:10:44.806Z,19.80
2019-06-26T09:13:09.731Z,17.83
2019-06-26T09:15:37.484Z,17.35
2019-06-26T09:18:04.904Z,19.65
2019-06-26T09:20:36.159Z,17.12
2019-06-26T09:23:03.693Z,18.30
2019-06-26T09:25:32.009Z,15.70
2019-06-26T09:27:59.475Z,19.60
2019-06-26T09:30:27.111Z,20.27
2019-06-26T09:32:54.511Z,22.85
2019-06-26T09:35:21.951Z,24.60
2019-06-26T09:37:49.423Z,25.00
2019-06-26T09:40:16.853Z,25.40
2019-06-26T09:42:44.267Z,27.15
2019-06-26T09:45:11.959Z,27.15
2019-06-26T09:47:39.391Z,23.15
2019-06-26T09:50:06.801Z,20.70
2019-06-26T09:52:34.231Z,17.50
2019-06-26T09:55:02.087Z,24.90
2019-06-26T09:57:29.350Z,21.15
2019-06-26T09:59:57.350Z,20.10
2019-06-26T10:02:24.786Z,20.40
2019-06-26T10:04:52.475Z,25.05
2019-06-26T10:17:08.441Z,27.73
2019-06-26T10:19:36.205Z,25.55
2019-06-26T10:22:03.647Z,25.50
2019-06-26T10:24:31.500Z,29.58
2019-06-26T10:26:58.929Z,20.00
2019-06-26T10:29:26.626Z,21.17
2019-06-26T10:31:54.264Z,19.23
2019-06-26T10:34:21.679Z,19.83
2019-06-26T10:36:49.089Z,23.50
2019-06-26T10:39:16.708Z,21.40
2019-06-26T10:41:44.171Z,23.73
2019-06-26T10:44:11.609Z,24.65
2019-06-26T10:46:39.001Z,22.75
2019-06-26T10:49:06.417Z,22.37
2019-06-26T10:51:33.837Z,25.62
2019-06-26T10:54:01.257Z,21.87
2019-06-26T10:56:28.979Z,20.25
2019-06-26T10:58:56.476Z,18.62
2019-06-26T11:01:24.020Z,21.53
2019-06-26T11:03:52.062Z,24.52
2019-06-26T11:06:19.457Z,23.58
2019-06-26T11:08:47.173Z,22.75
2019-06-26T11:11:14.675Z,21.33
2019-06-26T11:13:42.100Z,22.87
2019-06-26T11:16:09.516Z,22.92
2019-06-26T11:18:37.424Z,16.48
2019-06-26T11:21:04.842Z,20.00
2019-06-26T11:23:32.475Z,26.40
2019-06-26T11:25:59.969Z,26.52
2019-06-26T11:28:27.839Z,30.33
2019-06-26T11:30:55.273Z,26.33
2019-06-26T11:33:22.866Z,26.65
2019-06-26T11:35:50.286Z,33.20
2019-06-26T11:38:18.582Z,23.35
2019-06-26T11:40:46.005Z,27.20
2019-06-26T11:43:13.619Z,29.15
2019-06-26T11:45:41.034Z,35.88
2019-06-26T11:48:08.545Z,26.02
2019-06-26T11:50:36.127Z,36.77
2019-06-26T11:55:30.658Z,31.60
2019-06-26T11:57:58.820Z,27.75
2019-06-26T12:00:26.613Z,25.12
2019-06-26T12:02:54.675Z,31.20
2019-06-26T12:05:22.228Z,33.40
2019-06-26T12:07:49.664Z,26.25
2019-06-26T12:10:17.104Z,32.60
2019-06-26T12:12:44.907Z,28.42
2019-06-26T12:15:12.658Z,29.37
2019-06-26T12:17:40.095Z,33.53
2019-06-26T12:20:18.686Z,31.70
2019-06-26T12:22:36.114Z,26.48
2019-06-26T12:25:03.644Z,35.92
2019-06-26T12:27:31.308Z,33.33
2019-06-26T12:29:59.216Z,41.70
2019-06-26T12:32:26.738Z,43.10
2019-06-26T12:34:54.354Z,41.20
2019-06-26T12:37:36.645Z,38.73
2019-06-26T12:39:49.539Z,46.60
2019-06-26T12:42:17.836Z,46.00
2019-06-26T12:44:45.243Z,40.50
2019-06-26T12:47:12.756Z,53.33
2019-06-26T12:49:40.194Z,39.40
2019-06-26T12:52:07.649Z,44.83
2019-06-26T12:54:35.078Z,45.05
2019-06-26T12:57:03.039Z,40.30
2019-06-26T12:59:30.509Z,37.45
2019-06-26T13:01:58.257Z,49.43
2019-06-26T13:04:25.784Z,48.23
2019-06-26T13:06:53.270Z,49.87
2019-06-26T13:09:21.164Z,44.00
2019-06-26T13:11:49.102Z,43.20
2019-06-26T13:14:16.770Z,48.80
2019-06-26T13:16:45.194Z,42.25
2019-06-26T13:19:12.608Z,37.07
2019-06-26T13:21:40.384Z,39.78
2019-06-26T13:24:08.851Z,41.60
2019-06-26T13:26:36.443Z,30.73
2019-06-26T13:29:03.905Z,40.47
2019-06-26T13:31:31.649Z,36.13
2019-06-26T13:33:59.105Z,30.58
2019-06-26T13:36:26.700Z,39.53
2019-06-26T13:38:54.114Z,32.27
2019-06-26T13:41:22.415Z,32.30
2019-06-26T13:43:49.852Z,33.67
2019-06-26T13:46:17.309Z,26.07
2019-06-26T13:48:44.703Z,40.40
2019-06-26T13:51:12.381Z,29.17
2019-06-26T13:53:39.876Z,40.90
2019-06-26T13:56:07.410Z,35.67
2019-06-26T13:58:35.023Z,30.20
2019-06-26T14:01:02.486Z,28.50
2019-06-26T14:08:25.349Z,23.10
2019-06-26T14:13:19.785Z,32.50
2019-06-26T14:25:53.434Z,42.00
2019-06-26T14:30:48.103Z,40.23
2019-06-26T14:33:15.502Z,42.67
2019-06-26T14:35:42.948Z,40.43
2019-06-26T14:38:10.437Z,44.90
2019-06-26T14:40:37.966Z,38.50
2019-06-26T14:43:05.697Z,40.20
2019-06-26T14:45:33.303Z,41.80
2019-06-26T14:48:01.195Z,29.73
2019-06-26T14:50:28.865Z,39.27
2019-06-26T14:52:56.823Z,37.70
2019-06-26T14:55:24.283Z,36.95
2019-06-26T14:57:51.695Z,33.23
2019-06-26T15:00:19.218Z,34.92
2019-06-26T15:05:13.841Z,48.33
2019-06-26T15:07:41.439Z,35.17
2019-06-26T15:10:09.536Z,38.05
2019-06-26T15:12:37.165Z,30.58
2019-06-26T15:15:04.874Z,30.42
2019-06-26T15:17:32.384Z,28.75
2019-06-26T15:19:59.960Z,32.92
2019-06-26T15:22:27.411Z,39.60
2019-06-26T15:24:55.310Z,30.12
2019-06-26T15:27:22.773Z,32.65
2019-06-26T15:29:50.188Z,30.60
2019-06-26T15:32:17.599Z,32.53
2019-06-26T15:34:45.027Z,25.73
2019-06-26T15:37:12.430Z,30.27
2019-06-26T15:39:39.864Z,29.40
2019-06-26T15:42:07.381Z,34.83
2019-06-26T15:44:35.305Z,22.73
2019-06-26T15:47:02.731Z,39.03
2019-06-26T15:49:30.982Z,27.00
2019-06-26T15:52:14.066Z,33.35
2019-06-26T15:54:26.433Z,28.90
2019-06-26T15:56:53.903Z,25.90
2019-06-26T15:59:21.891Z,23.27
2019-06-26T16:01:49.342Z,26.65
2019-06-26T16:04:17.108Z,37.03
2019-06-26T16:06:44.528Z,29.25
2019-06-26T16:09:12.007Z,34.42
2019-06-26T16:11:39.470Z,31.62
2019-06-26T16:14:06.950Z,27.62
2019-06-26T16:16:34.501Z,40.37
2019-06-26T16:19:20.870Z,32.07
2019-06-26T16:21:48.720Z,34.08
2019-06-26T16:24:16.221Z,26.50
2019-06-26T16:26:44.236Z,35.15
2019-06-26T16:29:11.932Z,30.27
2019-06-26T16:31:39.373Z,32.80
2019-06-26T16:34:06.819Z,36.05
2019-06-26T16:36:34.251Z,30.73
2019-06-26T16:39:01.906Z,28.73
2019-06-26T16:41:29.616Z,30.67
2019-06-26T16:43:57.081Z,30.67
2019-06-26T16:46:24.625Z,39.05
2019-06-26T16:48:52.213Z,28.12
2019-06-26T16:51:19.707Z,37.28
2019-06-26T16:53:47.324Z,33.25
2019-06-26T16:56:14.858Z,33.47
2019-06-26T16:58:42.702Z,29.65
2019-06-26T17:01:10.126Z,30.62
2019-06-26T17:03:38.342Z,37.38
2019-06-26T17:06:05.808Z,26.23
2019-06-26T17:08:33.223Z,29.95
2019-06-26T17:11:00.817Z,28.23
2019-06-26T17:13:28.825Z,24.50
2019-06-26T17:15:56.363Z,30.08
2019-06-26T17:18:23.867Z,25.95
2019-06-26T17:20:51.380Z,25.67
2019-06-26T17:23:18.898Z,30.23
2019-06-26T17:25:46.362Z,34.38
2019-06-26T17:28:13.863Z,34.30
2019-06-26T17:30:41.450Z,40.22
2019-06-26T17:33:08.896Z,27.60
2019-06-26T17:35:36.361Z,34.78
2019-06-26T17:38:03.864Z,37.45
2019-06-26T17:40:31.510Z,32.20
2019-06-26T17:43:11.709Z,35.22
2019-06-26T17:45:26.663Z,26.08
2019-06-26T17:47:54.077Z,29.55
2019-06-26T17:50:21.577Z,31.10
2019-06-26T17:52:49.051Z,27.23
2019-06-26T17:55:16.619Z,29.73
2019-06-26T17:57:47.394Z,31.77
2019-06-26T18:00:12.232Z,26.73
2019-06-26T18:02:39.890Z,30.50
2019-06-26T18:05:07.454Z,29.30
2019-06-26T18:07:34.936Z,31.70
2019-06-26T18:10:02.482Z,31.60
2019-06-26T18:12:30.027Z,27.40
2019-06-26T18:14:58.555Z,22.73
2019-06-26T18:17:27.116Z,22.98
2019-06-26T18:19:54.822Z,26.62
2019-06-26T18:22:22.276Z,30.17
2019-06-26T18:24:49.743Z,33.58
2019-06-26T18:27:17.394Z,27.70
2019-06-26T18:29:45.230Z,31.67
2019-06-26T18:32:12.746Z,28.60
2019-06-26T18:34:40.204Z,30.25
2019-06-26T18:37:07.611Z,32.22
2019-06-26T18:39:35.239Z,25.17
2019-06-26T18:42:02.783Z,29.48
2019-06-26T18:44:30.444Z,31.50
2019-06-26T18:46:58.428Z,28.52
2019-06-26T18:49:26.211Z,23.77
2019-06-26T18:51:53.625Z,28.92
2019-06-26T18:54:21.171Z,30.90
2019-06-26T18:56:49.486Z,29.12
2019-06-26T18:59:17.157Z,28.75
2019-06-26T19:01:44.694Z,29.42
2019-06-26T19:04:12.509Z,33.78
2019-06-26T19:06:40.192Z,26.92
2019-06-26T19:09:07.930Z,25.90
2019-06-26T19:11:35.337Z,26.75
2019-06-26T19:14:02.815Z,25.27
2019-06-26T19:16:30.686Z,26.00
2019-06-26T19:18:58.569Z,25.62
2019-06-26T19:21:26.109Z,21.75
2019-06-26T19:24:08.862Z,28.75
2019-06-26T19:26:21.164Z,23.43
2019-06-26T19:28:48.722Z,19.15
2019-06-26T19:31:16.446Z,19.92
2019-06-26T19:33:45.677Z,17.25
2019-06-26T19:36:11.762Z,22.02
2019-06-26T19:38:39.453Z,19.50
2019-06-26T19:41:08.578Z,20.58
2019-06-26T19:43:34.500Z,26.48
2019-06-26T19:46:02.012Z,26.00
2019-06-26T19:48:29.464Z,25.08
2019-06-26T19:50:56.997Z,23.50
2019-06-26T19:53:25.066Z,26.20
2019-06-26T19:55:52.542Z,28.90
2019-06-26T19:58:21.704Z,37.50
2019-06-26T20:00:48.931Z,34.53
2019-06-26T20:03:16.461Z,33.40
2019-06-26T20:05:43.928Z,46.80
2019-06-26T20:08:11.499Z,38.47
2019-06-26T20:10:38.917Z,39.67
2019-06-26T20:13:07.124Z,37.70
2019-06-26T20:15:34.723Z,36.17
2019-06-26T20:18:04.256Z,34.85
2019-06-26T20:20:30.021Z,33.10
2019-06-26T20:22:57.485Z,35.83
2019-06-26T20:25:24.918Z,32.60
2019-06-26T20:27:56.954Z,33.88
2019-06-26T20:30:20.057Z,35.50
2019-06-26T20:32:47.607Z,28.95
2019-06-26T20:35:15.059Z,33.45
2019-06-26T20:37:42.465Z,30.60
2019-06-26T20:40:09.907Z,26.80
2019-06-26T20:42:37.580Z,29.90
2019-06-26T20:45:05.449Z,32.10
2019-06-26T20:47:32.896Z,30.67
2019-06-26T20:50:00.335Z,33.15
2019-06-26T20:52:27.838Z,31.77
2019-06-26T20:55:01.333Z,33.25
2019-06-26T20:57:23.357Z,36.65
2019-06-26T20:59:50.780Z,32.20
2019-06-26T21:02:18.623Z,28.95
2019-06-26T21:04:47.414Z,31.08
2019-06-26T21:07:14.965Z,28.70
2019-06-26T21:09:42.578Z,38.58
2019-06-26T21:12:10.065Z,36.00
2019-06-26T21:14:37.574Z,35.22
2019-06-26T21:17:05.276Z,29.52
2019-06-26T21:19:33.525Z,27.13
2019-06-26T21:22:02.020Z,28.20
2019-06-26T21:24:29.439Z,28.42
2019-06-26T21:26:57.119Z,28.70
2019-06-26T21:29:24.615Z,32.00
2019-06-26T21:31:52.177Z,28.55
2019-06-26T21:34:19.709Z,27.77
2019-06-26T21:36:47.646Z,28.05
2019-06-26T21:39:15.157Z,25.05
2019-06-26T21:41:43.003Z,23.20
2019-06-26T23:07:32.917Z,18.53
2019-06-26T23:10:00.707Z,20.00
2019-06-26T23:12:28.138Z,18.67
2019-06-26T23:14:55.666Z,16.70
2019-06-26T23:17:23.129Z,16.65
2019-06-26T23:19:50.619Z,17.98
2019-06-26T23:22:18.085Z,17.50
2019-06-26T23:24:45.946Z,18.20
2019-06-26T23:27:13.401Z,20.02
2019-06-26T23:29:40.851Z,19.50
2019-06-26T23:32:08.282Z,16.23
2019-06-26T23:34:35.716Z,14.77
2019-06-26T23:37:03.223Z,19.52
2019-06-26T23:39:30.673Z,18.60
2019-06-26T23:41:58.109Z,20.75
2019-06-26T23:44:25.766Z,19.10
2019-06-26T23:46:53.355Z,19.40
2019-06-26T23:49:21.568Z,19.67
2019-06-26T23:51:48.984Z,20.00
2019-06-26T23:54:16.748Z,17.15
2019-06-26T23:56:44.175Z,18.42
2019-06-26T23:59:12.502Z,17.85
